Time;durP1;ratioP1;P1;durP2;ratioP2;P2;SDS_P1;SDS_P2;PMS_P1;PMS_P2;Temp;Humidity;BMP_temperature;BMP_pressure;BME280_temperature;BME280_humidity;BME280_pressure;Samples;Min_cycle;Max_cycle;Signal;HPM_P1;HPM_P2
2022/01/24 00:01:31;;;;;;;11.77;8.10;;;;;12.90;103338.00;;;;5088823;28;20190;-82
2022/01/24 00:04:01;;;;;;;9.15;6.50;;;;;12.90;103325.00;;;;5088024;28;20221;-82
2022/01/24 00:06:30;;;;;;;9.93;6.85;;;;;12.90;103322.00;;;;5087211;28;20206;-81
2022/01/24 00:08:58;;;;;;;12.43;6.80;;;;;12.90;103321.00;;;;5088275;28;20336;-81
2022/01/24 00:11:36;;;;;;;11.40;7.45;;;;;12.90;103315.00;;;;5089236;28;20205;-82
2022/01/24 00:14:40;;;;;;;10.32;6.50;;;;;12.90;103314.00;;;;5089018;28;20204;-81
2022/01/24 00:17:07;;;;;;;8.88;6.13;;;;;12.90;103316.00;;;;5069062;28;20195;-82
2022/01/24 00:27:49;;;;;;;11.85;7.28;;;;;12.90;103312.00;;;;5088591;28;20236;-81
2022/01/24 00:30:18;;;;;;;11.38;6.65;;;;;12.90;103312.00;;;;5089301;28;20194;-82
2022/01/24 00:32:46;;;;;;;11.80;7.22;;;;;12.90;103319.00;;;;5093847;28;20198;-82
2022/01/24 00:35:14;;;;;;;12.27;7.97;;;;;12.90;103313.00;;;;5096552;28;20202;-81
2022/01/24 00:37:41;;;;;;;11.25;7.63;;;;;12.90;103312.00;;;;5097728;28;20197;-82
2022/01/24 00:40:10;;;;;;;13.02;7.72;;;;;12.90;103311.00;;;;5093666;28;20190;-82
2022/01/24 00:42:49;;;;;;;14.20;8.20;;;;;12.90;103308.00;;;;5079998;28;20210;-81
2022/01/24 00:45:28;;;;;;;11.50;7.25;;;;;12.90;103308.00;;;;5068095;28;20201;-81
2022/01/24 00:48:22;;;;;;;10.50;6.72;;;;;12.90;103308.00;;;;5099038;28;20193;-82
2022/01/24 00:53:50;;;;;;;12.13;7.93;;;;;12.90;103310.00;;;;5082640;28;20575;-81
2022/01/24 00:56:18;;;;;;;12.55;7.93;;;;;12.80;103306.00;;;;5088721;28;20201;-81
2022/01/24 00:58:45;;;;;;;15.43;8.18;;;;;12.80;103293.00;;;;5108428;28;20190;-81
2022/01/24 01:01:14;;;;;;;11.38;7.60;;;;;12.80;103301.00;;;;5100542;28;20194;-82
2022/01/24 01:03:41;;;;;;;12.75;8.68;;;;;12.80;103299.00;;;;5100456;28;20222;-82
2022/01/24 01:06:09;;;;;;;13.63;8.25;;;;;12.80;103290.00;;;;5088015;28;20191;-82
2022/01/24 01:19:45;;;;;;;13.02;8.85;;;;;12.70;103298.00;;;;5029990;28;20640;-82
2022/01/24 01:22:13;;;;;;;16.67;9.63;;;;;12.70;103301.00;;;;5085705;28;20194;-82
2022/01/24 01:24:46;;;;;;;16.17;9.70;;;;;12.70;103306.00;;;;5080733;28;20703;-82
2022/01/24 01:27:18;;;;;;;17.00;10.32;;;;;12.80;103315.00;;;;5087625;28;20198;-82
2022/01/24 01:29:54;;;;;;;14.18;9.25;;;;;12.80;103296.00;;;;5088282;28;20225;-82
2022/01/24 01:32:40;;;;;;;15.70;9.77;;;;;12.70;103304.00;;;;5076405;28;20206;-81
2022/01/24 01:35:24;;;;;;;18.92;10.25;;;;;12.70;103309.00;;;;5073204;28;20648;-82
2022/01/24 01:38:15;;;;;;;15.43;9.38;;;;;12.80;103314.00;;;;5087331;28;20194;-81
2022/01/24 01:54:36;;;;;;;15.40;9.35;;;;;12.70;103294.00;;;;5076961;28;20253;-82
2022/01/24 01:57:04;;;;;;;12.93;8.38;;;;;12.70;103299.00;;;;5087114;28;20293;-82
2022/01/24 01:59:31;;;;;;;13.70;9.55;;;;;12.70;103297.00;;;;5076946;28;20202;-82
2022/01/24 02:02:00;;;;;;;14.00;9.02;;;;;12.70;103298.00;;;;5088293;28;20596;-82
2022/01/24 02:04:29;;;;;;;16.75;9.85;;;;;12.70;103298.00;;;;5096660;28;20225;-82
2022/01/24 02:06:56;;;;;;;14.10;8.32;;;;;12.70;103293.00;;;;5087796;28;20190;-82
2022/01/24 02:09:30;;;;;;;15.38;9.63;;;;;12.60;103294.00;;;;5078325;28;20541;-82
2022/01/24 02:11:57;;;;;;;16.17;9.60;;;;;12.70;103293.00;;;;5098858;28;20197;-82
2022/01/24 02:14:31;;;;;;;14.70;10.15;;;;;12.60;103289.00;;;;5088611;28;20667;-81
2022/01/24 02:17:02;;;;;;;15.10;9.73;;;;;12.60;103296.00;;;;5088031;28;20309;-82
2022/01/24 02:19:46;;;;;;;15.35;9.38;;;;;12.60;103297.00;;;;5090305;28;20221;-82
2022/01/24 02:25:06;;;;;;;14.48;9.18;;;;;12.60;103288.00;;;;5082879;28;20310;-81
2022/01/24 02:27:43;;;;;;;13.02;8.60;;;;;12.60;103288.00;;;;5091848;28;20190;-82
2022/01/24 02:30:23;;;;;;;13.93;8.80;;;;;12.60;103283.00;;;;5109974;28;20255;-82
2022/01/24 02:32:50;;;;;;;13.73;8.30;;;;;12.60;103283.00;;;;5092184;28;20288;-81
2022/01/24 02:35:18;;;;;;;14.40;9.20;;;;;12.60;103287.00;;;;5091318;28;20631;-82
2022/01/24 02:37:48;;;;;;;15.07;9.63;;;;;12.50;103275.00;;;;5092159;28;20201;-82
2022/01/24 02:40:19;;;;;;;14.73;9.30;;;;;12.60;103279.00;;;;5091820;28;20674;-81
2022/01/24 02:48:28;;;;;;;14.20;8.50;;;;;12.50;103284.00;;;;5087450;28;20256;-82
2022/01/24 02:51:17;;;;;;;13.90;8.98;;;;;12.50;103279.00;;;;5076888;28;20285;-81
2022/01/24 02:53:46;;;;;;;13.70;8.40;;;;;12.50;103265.00;;;;5102306;28;20226;-81
2022/01/24 02:56:14;;;;;;;14.98;9.30;;;;;12.50;103267.00;;;;5079223;28;20203;-82
2022/01/24 02:58:41;;;;;;;13.25;8.73;;;;;12.50;103266.00;;;;5082928;28;20618;-81
2022/01/24 03:01:08;;;;;;;17.98;10.93;;;;;12.50;103278.00;;;;5070295;28;20210;-82
2022/01/24 03:03:36;;;;;;;15.23;9.50;;;;;12.50;103268.00;;;;5102926;28;20316;-82
2022/01/24 03:06:04;;;;;;;17.00;10.38;;;;;12.50;103266.00;;;;5083338;28;20237;-81
2022/01/24 03:08:31;;;;;;;14.65;9.98;;;;;12.50;103262.00;;;;5073360;28;20198;-81
2022/01/24 03:11:00;;;;;;;16.55;10.68;;;;;12.40;103264.00;;;;5090103;28;20202;-82
2022/01/24 03:13:33;;;;;;;17.33;11.48;;;;;12.50;103264.00;;;;5090813;28;20191;-82
2022/01/24 03:16:04;;;;;;;18.90;11.63;;;;;12.40;103262.00;;;;5089650;28;20202;-82
2022/01/24 03:18:31;;;;;;;17.00;11.50;;;;;12.40;103268.00;;;;5090658;28;20602;-82
2022/01/24 03:20:59;;;;;;;16.92;11.40;;;;;12.40;103255.00;;;;5089478;28;20603;-82
2022/01/24 03:23:26;;;;;;;21.00;12.60;;;;;12.40;103250.00;;;;5089613;28;20222;-82
2022/01/24 03:25:54;;;;;;;18.25;11.68;;;;;12.40;103251.00;;;;5089655;28;20198;-82
2022/01/24 03:28:22;;;;;;;17.33;12.02;;;;;12.40;103252.00;;;;5090137;28;20209;-81
2022/01/24 03:30:50;;;;;;;20.17;13.18;;;;;12.40;103246.00;;;;5088942;28;20206;-81
2022/01/24 03:33:17;;;;;;;18.30;12.25;;;;;12.40;103244.00;;;;5089963;28;20202;-81
2022/01/24 03:35:45;;;;;;;18.95;12.88;;;;;12.30;103245.00;;;;5089830;28;20656;-82
2022/01/24 03:38:13;;;;;;;20.30;13.88;;;;;12.30;103248.00;;;;5090094;28;20206;-82
2022/01/24 03:40:41;;;;;;;20.88;13.77;;;;;12.30;103244.00;;;;5076343;28;20210;-81
2022/01/24 03:43:09;;;;;;;20.88;13.68;;;;;12.30;103248.00;;;;5076254;28;20561;-82
2022/01/24 03:45:44;;;;;;;20.83;12.75;;;;;12.30;103247.00;;;;5089197;28;20206;-81
2022/01/24 03:48:26;;;;;;;20.30;13.23;;;;;12.30;103249.00;;;;5089330;28;20202;-81
2022/01/24 03:50:55;;;;;;;20.85;13.18;;;;;12.30;103246.00;;;;5088879;28;20194;-81
2022/01/24 03:53:22;;;;;;;20.58;13.63;;;;;12.30;103243.00;;;;5089539;28;20582;-82
2022/01/24 03:55:49;;;;;;;19.50;13.13;;;;;12.30;103240.00;;;;5088411;28;20699;-81
2022/01/24 03:58:17;;;;;;;19.42;13.07;;;;;12.30;103244.00;;;;5071610;28;20218;-82
2022/01/24 04:00:45;;;;;;;19.35;12.77;;;;;12.20;103243.00;;;;5109490;28;20198;-81
2022/01/24 04:03:14;;;;;;;17.88;11.85;;;;;12.20;103241.00;;;;5093991;28;20198;-81
2022/01/24 04:05:41;;;;;;;16.70;11.43;;;;;12.20;103244.00;;;;5089272;28;20554;-82
2022/01/24 04:08:09;;;;;;;16.95;11.43;;;;;12.20;103244.00;;;;5089335;28;20241;-82
2022/01/24 04:10:42;;;;;;;20.55;13.75;;;;;12.20;103249.00;;;;5089568;28;20202;-82
2022/01/24 04:13:22;;;;;;;20.92;13.38;;;;;12.20;103249.00;;;;5088451;28;20194;-82
2022/01/24 04:16:11;;;;;;;18.65;13.10;;;;;12.20;103250.00;;;;5084092;28;20198;-82
2022/01/24 04:18:47;;;;;;;17.88;12.23;;;;;12.20;103256.00;;;;5088744;28;20279;-82
2022/01/24 04:21:21;;;;;;;20.15;13.23;;;;;12.20;103251.00;;;;5089283;28;20209;-82
2022/01/24 04:23:53;;;;;;;20.23;13.43;;;;;12.20;103256.00;;;;5088755;28;20310;-81
2022/01/24 04:26:21;;;;;;;22.92;14.10;;;;;12.20;103250.00;;;;5088733;28;20198;-81
2022/01/24 04:28:48;;;;;;;20.30;13.00;;;;;12.20;103261.00;;;;5088973;28;20198;-81
2022/01/24 04:31:17;;;;;;;20.83;14.25;;;;;12.20;103258.00;;;;5088181;28;20688;-82
2022/01/24 04:33:44;;;;;;;22.65;15.50;;;;;12.20;103255.00;;;;5087815;28;20600;-82
2022/01/24 04:36:12;;;;;;;22.67;13.63;;;;;12.20;103255.00;;;;5083105;28;20198;-81
2022/01/24 04:38:39;;;;;;;19.25;13.90;;;;;12.20;103261.00;;;;5075303;28;20206;-81
2022/01/24 04:41:15;;;;;;;20.52;14.07;;;;;12.20;103259.00;;;;5073853;28;20808;-82
2022/01/24 04:43:54;;;;;;;19.90;13.23;;;;;12.20;103251.00;;;;5086170;28;20189;-82
2022/01/24 04:46:46;;;;;;;18.30;12.63;;;;;12.20;103259.00;;;;5089081;28;20680;-81
2022/01/24 04:52:14;;;;;;;17.75;12.30;;;;;12.20;103251.00;;;;5095597;28;20208;-81
2022/01/24 04:54:43;;;;;;;16.98;12.15;;;;;12.20;103254.00;;;;5098880;28;20274;-82
2022/01/24 04:57:12;;;;;;;19.25;12.73;;;;;12.20;103247.00;;;;5088763;28;20194;-81
2022/01/24 04:59:41;;;;;;;17.95;11.88;;;;;12.20;103252.00;;;;5089542;28;20188;-82
2022/01/24 05:02:10;;;;;;;19.38;13.50;;;;;12.20;103248.00;;;;5088481;28;20202;-81
2022/01/24 05:04:37;;;;;;;19.88;13.32;;;;;12.20;103237.00;;;;5083857;28;20435;-81
2022/01/24 05:07:05;;;;;;;18.48;13.02;;;;;12.20;103240.00;;;;5071565;28;21067;-82
2022/01/24 05:09:37;;;;;;;18.08;12.55;;;;;12.20;103235.00;;;;5069938;28;20199;-81
2022/01/24 05:12:12;;;;;;;17.35;12.65;;;;;12.20;103235.00;;;;5088447;28;20713;-82
2022/01/24 05:23:29;;;;;;;18.40;13.05;;;;;12.20;103236.00;;;;5077307;28;20213;-82
2022/01/24 05:25:57;;;;;;;20.45;12.48;;;;;12.10;103239.00;;;;5088116;28;20257;-81
2022/01/24 05:28:25;;;;;;;17.38;12.82;;;;;12.10;103231.00;;;;5089173;28;20198;-81
2022/01/24 05:30:53;;;;;;;19.45;12.77;;;;;12.20;103245.00;;;;5089328;28;20194;-82
2022/01/24 05:33:22;;;;;;;19.10;12.95;;;;;12.20;103244.00;;;;5088365;28;20201;-81
2022/01/24 05:35:50;;;;;;;19.70;12.70;;;;;12.20;103242.00;;;;5088734;28;20190;-81
2022/01/24 05:38:17;;;;;;;19.35;12.95;;;;;12.20;103247.00;;;;5087498;28;20190;-81
2022/01/24 05:40:45;;;;;;;19.13;12.95;;;;;12.20;103237.00;;;;5068418;28;20210;-81
2022/01/24 05:43:13;;;;;;;20.42;13.70;;;;;12.20;103238.00;;;;5068601;28;20195;-81
2022/01/24 05:45:41;;;;;;;18.55;12.23;;;;;12.20;103235.00;;;;5080532;28;20229;-82
2022/01/24 05:48:09;;;;;;;17.42;11.98;;;;;12.20;103235.00;;;;5088857;28;20198;-81
2022/01/24 05:50:38;;;;;;;20.67;13.20;;;;;12.20;103244.00;;;;5089050;28;20209;-81
2022/01/24 05:53:05;;;;;;;22.80;13.93;;;;;12.20;103234.00;;;;5087923;28;20198;-81
2022/01/24 05:55:33;;;;;;;21.33;13.52;;;;;12.20;103235.00;;;;5090633;28;20229;-82
2022/01/24 05:58:01;;;;;;;21.08;13.45;;;;;12.20;103233.00;;;;5091259;28;20197;-81
2022/01/24 06:00:28;;;;;;;21.38;14.05;;;;;12.20;103243.00;;;;5091646;28;20201;-80
2022/01/24 06:02:55;;;;;;;22.05;13.32;;;;;12.20;103236.00;;;;5092251;28;20201;-81
2022/01/24 06:05:23;;;;;;;20.55;13.13;;;;;12.20;103237.00;;;;5091982;28;20221;-81
2022/01/24 06:07:51;;;;;;;20.48;13.70;;;;;12.20;103241.00;;;;5091804;28;21631;-81
2022/01/24 06:10:18;;;;;;;18.52;12.48;;;;;12.20;103245.00;;;;5091712;28;20198;-81
2022/01/24 06:12:46;;;;;;;20.73;13.45;;;;;12.20;103247.00;;;;5085741;28;20202;-81
2022/01/24 06:15:13;;;;;;;18.92;12.10;;;;;12.20;103247.00;;;;5078894;28;20194;-81
2022/01/24 06:17:41;;;;;;;19.98;12.85;;;;;12.20;103245.00;;;;5090012;28;20194;-81
2022/01/24 06:20:09;;;;;;;18.77;12.57;;;;;12.20;103249.00;;;;5083309;28;20210;-81
2022/01/24 06:22:37;;;;;;;19.52;12.90;;;;;12.20;103236.00;;;;5088043;28;20198;-81
2022/01/24 06:25:07;;;;;;;20.60;13.07;;;;;12.20;103247.00;;;;5081233;28;20250;-82
2022/01/24 06:27:35;;;;;;;20.90;12.77;;;;;12.20;103250.00;;;;5087780;28;20198;-81
2022/01/24 06:30:02;;;;;;;20.77;12.88;;;;;12.20;103245.00;;;;5079403;28;20207;-82
2022/01/24 06:32:30;;;;;;;20.25;13.68;;;;;12.20;103247.00;;;;5090896;28;20213;-81
2022/01/24 06:34:57;;;;;;;20.83;14.30;;;;;12.20;103247.00;;;;5088286;28;20198;-81
2022/01/24 06:37:24;;;;;;;19.95;13.30;;;;;12.20;103248.00;;;;5091280;28;20194;-82
2022/01/24 06:39:52;;;;;;;18.27;12.52;;;;;12.20;103252.00;;;;5090627;28;20186;-82
2022/01/24 06:42:23;;;;;;;18.58;12.57;;;;;12.20;103254.00;;;;5090808;28;20206;-82
2022/01/24 06:44:51;;;;;;;19.02;12.25;;;;;12.20;103253.00;;;;5090453;28;20232;-82
2022/01/24 06:47:18;;;;;;;22.38;13.57;;;;;12.20;103254.00;;;;5090104;28;20209;-82
2022/01/24 06:49:46;;;;;;;18.17;12.32;;;;;12.20;103260.00;;;;5090223;28;20194;-79
2022/01/24 06:52:14;;;;;;;18.38;12.63;;;;;12.20;103257.00;;;;5091129;28;20206;-80
2022/01/24 06:54:42;;;;;;;18.23;12.80;;;;;12.10;103247.00;;;;5090103;28;20257;-80
2022/01/24 06:57:11;;;;;;;20.65;13.60;;;;;12.10;103254.00;;;;5088762;28;20194;-79
2022/01/24 06:59:41;;;;;;;21.73;14.45;;;;;12.10;103259.00;;;;5088420;28;20226;-78
2022/01/24 07:02:09;;;;;;;20.80;13.43;;;;;12.10;103259.00;;;;5090550;28;20194;-78
2022/01/24 07:04:39;;;;;;;20.88;14.25;;;;;12.10;103262.00;;;;5084436;28;20222;-79
2022/01/24 07:07:07;;;;;;;17.98;12.85;;;;;12.10;103258.00;;;;5089238;28;20191;-80
2022/01/24 07:09:34;;;;;;;19.58;12.70;;;;;12.10;103258.00;;;;5090621;28;20217;-79
2022/01/24 07:12:01;;;;;;;19.83;14.00;;;;;12.10;103258.00;;;;5088039;28;20186;-80
2022/01/24 07:14:29;;;;;;;21.30;13.35;;;;;12.10;103256.00;;;;5088040;28;20198;-79
2022/01/24 07:17:14;;;;;;;20.17;13.63;;;;;12.10;103257.00;;;;5089388;28;20202;-79
2022/01/24 07:19:41;;;;;;;20.17;13.68;;;;;12.10;103257.00;;;;5097776;28;20213;-80
2022/01/24 07:22:08;;;;;;;22.40;13.00;;;;;12.10;103247.00;;;;5080992;28;20194;-79
2022/01/24 07:24:36;;;;;;;20.88;13.60;;;;;12.10;103260.00;;;;5089111;28;20194;-80
2022/01/24 07:27:04;;;;;;;18.23;12.93;;;;;12.10;103271.00;;;;5089318;28;20198;-80
2022/01/24 07:29:32;;;;;;;20.70;14.10;;;;;12.20;103271.00;;;;5090723;28;20210;-80
2022/01/24 07:32:01;;;;;;;21.00;14.23;;;;;12.10;103274.00;;;;5088785;28;20195;-80
2022/01/24 07:34:29;;;;;;;20.67;13.50;;;;;12.10;103279.00;;;;5087943;28;20198;-80
2022/01/24 07:36:57;;;;;;;20.73;14.10;;;;;12.10;103277.00;;;;5089352;28;20198;-79
2022/01/24 07:39:25;;;;;;;21.98;14.23;;;;;12.10;103290.00;;;;5082011;28;20206;-79
2022/01/24 07:41:52;;;;;;;20.60;13.90;;;;;12.10;103287.00;;;;5088485;28;20194;-79
2022/01/24 07:44:21;;;;;;;20.77;13.63;;;;;12.10;103286.00;;;;5090222;28;20198;-79
2022/01/24 07:46:48;;;;;;;20.85;13.98;;;;;12.10;103289.00;;;;5088882;28;20285;-79
2022/01/24 07:49:17;;;;;;;18.70;13.20;;;;;12.10;103284.00;;;;5090082;28;20201;-79
2022/01/24 07:51:44;;;;;;;18.30;12.13;;;;;12.20;103292.00;;;;5084885;28;20190;-79
2022/01/24 07:54:12;;;;;;;19.80;13.25;;;;;12.20;103291.00;;;;5088732;28;20233;-76
2022/01/24 07:56:40;;;;;;;18.52;13.25;;;;;12.20;103288.00;;;;5089034;28;20202;-77
2022/01/24 07:59:07;;;;;;;18.92;12.98;;;;;12.20;103295.00;;;;5090156;28;20570;-76
2022/01/24 08:01:35;;;;;;;17.98;12.52;;;;;12.20;103295.00;;;;5089347;28;20674;-76
2022/01/24 08:04:02;;;;;;;19.65;12.57;;;;;12.20;103298.00;;;;5089220;28;20213;-76
2022/01/24 08:06:31;;;;;;;20.80;13.57;;;;;12.20;103295.00;;;;5089462;28;20225;-77
2022/01/24 08:08:59;;;;;;;17.45;12.32;;;;;12.20;103291.00;;;;5091637;28;20195;-78
2022/01/24 08:11:26;;;;;;;18.10;12.55;;;;;12.20;103295.00;;;;5090017;28;20190;-77
2022/01/24 08:13:54;;;;;;;16.23;11.52;;;;;12.20;103284.00;;;;5092272;28;20197;-77
2022/01/24 08:16:22;;;;;;;16.63;11.38;;;;;12.20;103290.00;;;;5092208;28;20202;-77
2022/01/24 08:18:51;;;;;;;16.15;10.85;;;;;12.20;103289.00;;;;5093105;28;20719;-77
2022/01/24 08:21:19;;;;;;;13.98;10.82;;;;;12.20;103288.00;;;;5092303;28;20198;-79
2022/01/24 08:23:48;;;;;;;18.85;10.52;;;;;12.20;103295.00;;;;5089340;28;20694;-78
2022/01/24 08:26:15;;;;;;;16.45;11.73;;;;;12.20;103302.00;;;;5088518;28;20214;-79
2022/01/24 08:28:42;;;;;;;15.15;10.15;;;;;12.20;103301.00;;;;5083902;28;20207;-79
2022/01/24 08:31:10;;;;;;;15.25;10.88;;;;;12.20;103304.00;;;;5086501;28;20202;-79
2022/01/24 08:33:37;;;;;;;14.88;11.38;;;;;12.20;103300.00;;;;5083323;28;20202;-78
2022/01/24 08:36:05;;;;;;;18.17;12.10;;;;;12.30;103302.00;;;;5082501;28;20213;-78
2022/01/24 08:38:34;;;;;;;16.95;10.68;;;;;12.30;103300.00;;;;5085498;28;20202;-78
2022/01/24 08:41:06;;;;;;;17.17;11.43;;;;;12.20;103307.00;;;;5087342;28;20194;-79
2022/01/24 08:43:49;;;;;;;17.52;10.52;;;;;12.30;103305.00;;;;5088407;28;20206;-79
2022/01/24 08:46:17;;;;;;;14.95;10.38;;;;;12.30;103304.00;;;;5080626;28;20336;-78
2022/01/24 08:48:46;;;;;;;15.80;10.98;;;;;12.30;103307.00;;;;5088064;28;20206;-78
2022/01/24 08:51:13;;;;;;;16.45;11.35;;;;;12.30;103307.00;;;;5087456;28;20243;-79
2022/01/24 08:53:40;;;;;;;13.65;10.55;;;;;12.30;103306.00;;;;5088684;28;20190;-78
2022/01/24 08:56:11;;;;;;;15.38;10.48;;;;;12.30;103311.00;;;;5088275;28;20198;-78
2022/01/24 08:58:39;;;;;;;14.70;11.00;;;;;12.30;103302.00;;;;5087998;28;20705;-78
2022/01/24 09:01:07;;;;;;;13.85;9.95;;;;;12.30;103302.00;;;;5088534;28;20583;-78
2022/01/24 09:03:39;;;;;;;12.45;9.65;;;;;12.40;103301.00;;;;5076383;28;20206;-79
2022/01/24 09:06:07;;;;;;;14.68;10.60;;;;;12.40;103309.00;;;;5086864;28;20233;-78
2022/01/24 09:08:35;;;;;;;13.63;9.57;;;;;12.40;103314.00;;;;5089054;28;20226;-79
2022/01/24 09:11:03;;;;;;;12.90;10.45;;;;;12.40;103315.00;;;;5087761;28;20233;-79
2022/01/24 09:13:32;;;;;;;15.13;10.82;;;;;12.40;103319.00;;;;5084501;28;20210;-79
2022/01/24 09:16:00;;;;;;;15.25;10.20;;;;;12.40;103318.00;;;;5087864;28;20252;-78
2022/01/24 09:18:28;;;;;;;12.32;9.77;;;;;12.40;103320.00;;;;5088321;28;21005;-78
2022/01/24 09:20:55;;;;;;;15.60;11.07;;;;;12.40;103308.00;;;;5087296;28;20229;-78
2022/01/24 09:23:23;;;;;;;13.52;10.38;;;;;12.40;103314.00;;;;5088178;28;20198;-78
2022/01/24 09:25:51;;;;;;;12.93;9.48;;;;;12.40;103312.00;;;;5087897;28;20222;-78
2022/01/24 09:28:19;;;;;;;12.63;9.38;;;;;12.40;103319.00;;;;5089987;28;20540;-78
2022/01/24 09:30:48;;;;;;;12.85;9.90;;;;;12.40;103316.00;;;;5091763;28;20202;-78
2022/01/24 09:33:15;;;;;;;13.70;9.60;;;;;12.40;103307.00;;;;5092781;28;20209;-79
2022/01/24 09:35:43;;;;;;;15.20;10.57;;;;;12.40;103314.00;;;;5091983;28;20925;-79
2022/01/24 09:38:11;;;;;;;12.85;10.05;;;;;12.50;103322.00;;;;5090017;28;20202;-80
2022/01/24 09:40:39;;;;;;;12.68;9.63;;;;;12.50;103312.00;;;;5089964;28;20194;-80
2022/01/24 09:43:07;;;;;;;12.32;8.90;;;;;12.50;103313.00;;;;5090988;28;20203;-79
2022/01/24 09:45:36;;;;;;;10.20;7.40;;;;;12.50;103308.00;;;;5091766;28;20227;-80
2022/01/24 09:48:05;;;;;;;11.75;8.60;;;;;12.50;103304.00;;;;5091447;28;20235;-80
2022/01/24 09:50:33;;;;;;;10.52;7.78;;;;;12.50;103308.00;;;;5088890;28;20267;-80
2022/01/24 09:53:01;;;;;;;12.40;8.95;;;;;12.60;103306.00;;;;5090907;28;20194;-80
2022/01/24 09:55:28;;;;;;;13.55;9.95;;;;;12.50;103304.00;;;;5089952;28;20780;-80
2022/01/24 09:57:56;;;;;;;12.40;9.52;;;;;12.60;103319.00;;;;5072760;28;20206;-81
2022/01/24 10:00:26;;;;;;;12.10;8.70;;;;;12.50;103312.00;;;;5091316;28;20194;-79
2022/01/24 10:02:54;;;;;;;12.18;8.68;;;;;12.50;103317.00;;;;5079754;28;20202;-79
2022/01/24 10:05:24;;;;;;;11.00;8.07;;;;;12.50;103315.00;;;;5070870;28;20203;-79
2022/01/24 10:07:54;;;;;;;12.38;8.73;;;;;12.60;103314.00;;;;5084882;28;20205;-79
2022/01/24 10:10:33;;;;;;;13.20;8.88;;;;;12.50;103322.00;;;;5089154;28;20194;-80
2022/01/24 10:16:28;;;;;;;10.05;7.82;;;;;12.50;103319.00;;;;5071037;28;20197;-79
2022/01/24 10:19:01;;;;;;;11.45;7.68;;;;;12.60;103317.00;;;;5071641;28;20758;-79
2022/01/24 10:21:30;;;;;;;10.95;8.40;;;;;12.60;103318.00;;;;5089125;28;20201;-79
2022/01/24 10:23:57;;;;;;;9.60;7.25;;;;;12.60;103313.00;;;;5084439;28;20195;-80
2022/01/24 10:26:26;;;;;;;10.05;7.32;;;;;12.60;103313.00;;;;5087080;28;20230;-79
2022/01/24 10:28:53;;;;;;;11.30;8.10;;;;;12.60;103319.00;;;;5085901;28;20225;-79
2022/01/24 10:31:24;;;;;;;10.57;7.85;;;;;12.60;103324.00;;;;5083420;28;20207;-80
2022/01/24 10:33:55;;;;;;;11.38;7.75;;;;;12.60;103318.00;;;;5090199;28;20194;-80
2022/01/24 10:36:36;;;;;;;10.13;6.93;;;;;12.60;103326.00;;;;5076976;28;20203;-79
2022/01/24 10:39:26;;;;;;;10.68;7.22;;;;;12.60;103313.00;;;;5089772;28;20201;-80
2022/01/24 10:42:25;;;;;;;8.82;6.50;;;;;12.60;103310.00;;;;5087238;28;20194;-79
2022/01/24 10:44:53;;;;;;;8.30;6.25;;;;;12.70;103304.00;;;;5086934;28;20258;-79
2022/01/24 10:47:23;;;;;;;9.85;7.15;;;;;12.70;103302.00;;;;5088554;28;20595;-79
2022/01/24 10:49:52;;;;;;;10.13;6.93;;;;;12.70;103299.00;;;;5088493;28;20664;-79
2022/01/24 10:52:23;;;;;;;8.73;6.57;;;;;12.70;103297.00;;;;5090353;28;20194;-80
2022/01/24 10:54:52;;;;;;;9.30;6.57;;;;;12.70;103301.00;;;;5089669;28;20226;-80
2022/01/24 10:57:25;;;;;;;7.95;6.03;;;;;12.70;103301.00;;;;5090756;28;20213;-79
2022/01/24 11:00:00;;;;;;;9.15;6.40;;;;;12.70;103293.00;;;;5082336;28;20201;-80
2022/01/24 11:02:36;;;;;;;10.27;6.45;;;;;12.70;103301.00;;;;5083874;28;20599;-80
2022/01/24 11:05:15;;;;;;;8.88;6.90;;;;;12.70;103294.00;;;;5082923;28;20243;-80
2022/01/24 11:07:58;;;;;;;9.90;7.55;;;;;12.70;103294.00;;;;5086163;28;20221;-79
2022/01/24 11:10:27;;;;;;;9.43;7.13;;;;;12.80;103290.00;;;;5089161;28;20194;-79
2022/01/24 11:12:54;;;;;;;10.00;7.57;;;;;12.80;103283.00;;;;5089568;28;20201;-78
2022/01/24 11:15:23;;;;;;;10.82;8.18;;;;;12.80;103289.00;;;;5084750;28;20202;-79
2022/01/24 11:17:50;;;;;;;11.43;8.30;;;;;12.90;103289.00;;;;5089499;28;20202;-79
2022/01/24 11:20:20;;;;;;;11.00;7.53;;;;;12.80;103285.00;;;;5083964;28;20298;-79
2022/01/24 11:22:52;;;;;;;11.93;8.75;;;;;12.90;103284.00;;;;5084152;28;20575;-78
2022/01/24 11:25:21;;;;;;;10.88;7.72;;;;;12.80;103284.00;;;;5087053;28;20198;-78
2022/01/24 11:27:49;;;;;;;14.23;8.48;;;;;12.80;103275.00;;;;5089811;28;20222;-79
2022/01/24 11:30:20;;;;;;;11.38;8.77;;;;;12.80;103275.00;;;;5087268;28;20587;-79
2022/01/24 11:32:51;;;;;;;12.40;9.32;;;;;12.80;103267.00;;;;5082294;28;20287;-79
2022/01/24 11:35:34;;;;;;;13.82;9.35;;;;;12.80;103277.00;;;;5075480;28;20559;-79
2022/01/24 11:38:02;;;;;;;10.75;8.35;;;;;12.90;103269.00;;;;5088461;28;20203;-79
2022/01/24 11:40:46;;;;;;;11.43;8.43;;;;;12.80;103264.00;;;;5090085;28;20672;-79
2022/01/24 11:43:27;;;;;;;14.23;8.75;;;;;12.80;103264.00;;;;5078908;28;20205;-79
2022/01/24 11:46:02;;;;;;;14.48;10.02;;;;;12.90;103268.00;;;;5081412;28;20285;-79
2022/01/24 11:48:30;;;;;;;13.40;9.38;;;;;12.90;103271.00;;;;5088933;28;20578;-79
2022/01/24 11:51:00;;;;;;;12.07;8.95;;;;;12.90;103279.00;;;;5086338;28;20190;-80
2022/01/24 11:53:30;;;;;;;12.05;9.13;;;;;12.90;103275.00;;;;5076334;28;20206;-80
2022/01/24 11:56:24;;;;;;;12.73;9.52;;;;;12.80;103275.00;;;;5083654;28;20313;-80
2022/01/24 11:58:53;;;;;;;11.80;8.82;;;;;12.90;103263.00;;;;5088643;28;20783;-79
2022/01/24 12:01:37;;;;;;;13.48;9.75;;;;;12.80;103276.00;;;;5089478;28;20214;-79
2022/01/24 12:04:05;;;;;;;12.43;8.40;;;;;12.90;103277.00;;;;5088803;28;20305;-79
2022/01/24 12:07:16;;;;;;;12.02;9.07;;;;;12.80;103280.00;;;;5089236;28;20221;-78
2022/01/24 12:09:43;;;;;;;12.30;8.98;;;;;12.90;103274.00;;;;5082904;28;20206;-80
2022/01/24 12:12:41;;;;;;;12.95;9.25;;;;;12.80;103275.00;;;;5087088;28;20201;-78
2022/01/24 12:15:12;;;;;;;13.10;9.00;;;;;12.90;103264.00;;;;5086796;28;20190;-80
2022/01/24 12:17:47;;;;;;;13.05;9.90;;;;;12.80;103265.00;;;;5089038;28;20600;-80
2022/01/24 12:20:46;;;;;;;10.90;8.73;;;;;12.80;103257.00;;;;5088094;28;20231;-80
2022/01/24 12:23:35;;;;;;;10.00;7.63;;;;;12.80;103268.00;;;;5089229;28;20206;-80
2022/01/24 12:26:05;;;;;;;11.23;8.55;;;;;12.90;103259.00;;;;5089028;28;20190;-80
2022/01/24 12:28:35;;;;;;;10.55;8.45;;;;;12.80;103257.00;;;;5089073;28;20210;-80
2022/01/24 12:31:08;;;;;;;12.38;8.73;;;;;12.80;103253.00;;;;5088191;28;20213;-80
2022/01/24 12:33:39;;;;;;;10.77;8.57;;;;;12.80;103251.00;;;;5086912;28;20585;-79
2022/01/24 12:36:08;;;;;;;11.82;8.52;;;;;12.90;103254.00;;;;5089177;28;20194;-82
2022/01/24 12:38:45;;;;;;;11.82;8.35;;;;;12.80;103248.00;;;;5089042;28;20187;-80
2022/01/24 12:41:17;;;;;;;13.35;10.07;;;;;12.90;103254.00;;;;5088918;28;20217;-80
2022/01/24 12:43:58;;;;;;;11.98;8.57;;;;;12.90;103246.00;;;;5083223;28;20662;-80
2022/01/24 12:46:27;;;;;;;11.70;8.57;;;;;12.90;103244.00;;;;5073503;28;20228;-80
2022/01/24 12:48:56;;;;;;;11.73;9.10;;;;;12.90;103248.00;;;;5088690;28;20190;-80
2022/01/24 12:51:25;;;;;;;12.88;9.02;;;;;12.90;103246.00;;;;5089963;28;20232;-79
2022/01/24 12:53:53;;;;;;;12.05;9.02;;;;;12.90;103246.00;;;;5088186;28;20195;-81
2022/01/24 12:56:26;;;;;;;10.20;7.88;;;;;12.80;103243.00;;;;5088677;28;20223;-80
2022/01/24 12:58:54;;;;;;;9.85;7.57;;;;;12.90;103239.00;;;;5088581;28;20202;-81
2022/01/24 13:01:24;;;;;;;11.70;8.85;;;;;12.90;103234.00;;;;5087852;28;20541;-80
2022/01/24 13:03:55;;;;;;;11.38;7.80;;;;;12.90;103229.00;;;;5087160;28;20194;-80
2022/01/24 13:06:23;;;;;;;11.68;8.57;;;;;12.90;103233.00;;;;5088768;28;20281;-80
2022/01/24 13:08:55;;;;;;;12.10;8.88;;;;;12.90;103241.00;;;;5088033;28;20213;-81
2022/01/24 13:11:22;;;;;;;10.48;7.22;;;;;12.90;103238.00;;;;5088238;28;20206;-79
2022/01/24 13:14:01;;;;;;;11.55;7.57;;;;;12.80;103242.00;;;;5088305;28;20210;-81